DTTZ/TOE METAR and TAF weather

Enter ICAO airport designator
Station Type Date Time Source
DTTZ METAR 2022/05/24 12:00 UTC NOAA

DTTZ 241200Z 19010KT 160V220 CAVOK 38/M08 Q1009 SIROCCO


Station Type Date Time Source
DTTZ Decoded METAR 2022/05/24 12:00 UTC NOAA

Tozeur, Tunisia (DTTZ) 33-55N 008-06E 93M
May 24, 2022 - 08:00 AM EDT / 2022.05.24 1200 UTC
Wind: from the S (190 degrees) at 12 MPH (10 KT) (direction variable):0
Visibility: greater than 7 mile(s):0
Temperature: 100 F (38 C)
Dew Point: 17 F (-8 C)
Relative Humidity: 5%
Pressure (altimeter): 29.80 in. Hg (1009 hPa)
ob: DTTZ 241200Z 19010KT 160V220 CAVOK 38/M08 Q1009 SIROCCO
cycle: 12

Station Type Date Time Source
DTTZ TAF 2022/05/24 12:24 UTC NOAA

TAF DTTZ 241100Z 2412/2512 23010KT CAVOK
BECMG 2422/2424 VRB02KT
BECMG 2504/2503 10010KT
BECMG 2509/2511 16010KT

Example: see airport list